createdAt,value
2019-04-20T00:01:36.010Z,21.10
2019-04-20T00:04:10.844Z,20.20
2019-04-20T00:06:39.842Z,21.53
2019-04-20T00:09:14.005Z,21.03
2019-04-20T00:11:51.672Z,21.40
2019-04-20T00:14:16.156Z,22.03
2019-04-20T00:16:40.106Z,21.37
2019-04-20T00:19:10.269Z,21.40
2019-04-20T00:21:53.702Z,20.70
2019-04-20T00:24:23.427Z,21.30
2019-04-20T00:27:15.804Z,21.67
2019-04-20T00:29:39.351Z,22.07
2019-04-20T00:32:02.819Z,23.40
2019-04-20T00:34:28.254Z,23.23
2019-04-20T00:36:53.921Z,22.83
2019-04-20T00:39:23.864Z,22.70
2019-04-20T00:41:58.733Z,23.13
2019-04-20T00:44:28.710Z,24.70
2019-04-20T00:47:04.514Z,21.80
2019-04-20T00:49:38.890Z,22.90
2019-04-20T00:52:23.746Z,22.57
2019-04-20T00:54:26.364Z,21.90
2019-04-20T00:57:06.633Z,22.97
2019-04-20T00:59:44.657Z,23.70
2019-04-20T01:02:15.622Z,21.13
2019-04-20T01:04:52.398Z,22.43
2019-04-20T01:07:17.650Z,23.10
2019-04-20T01:09:51.994Z,23.53
2019-04-20T01:12:26.287Z,25.47
2019-04-20T01:14:55.967Z,24.50
2019-04-20T01:17:21.794Z,24.27
2019-04-20T01:19:52.688Z,23.77
2019-04-20T01:22:25.117Z,23.33
2019-04-20T01:24:52.010Z,23.57
2019-04-20T01:27:34.999Z,22.73
2019-04-20T01:30:03.473Z,23.20
2019-04-20T01:32:32.022Z,22.17
2019-04-20T01:35:05.903Z,23.80
2019-04-20T01:37:36.562Z,22.30
2019-04-20T01:39:57.609Z,21.33
2019-04-20T01:42:25.517Z,22.57
2019-04-20T01:44:56.951Z,22.43
2019-04-20T01:47:32.295Z,23.33
2019-04-20T01:50:05.826Z,22.87
2019-04-20T01:52:35.303Z,24.20
2019-04-20T01:55:23.005Z,22.67
2019-04-20T01:58:00.525Z,22.93
2019-04-20T02:00:33.330Z,21.13
2019-04-20T02:03:20.967Z,22.50
2019-04-20T02:05:57.820Z,21.80
2019-04-20T02:08:22.582Z,23.23
2019-04-20T02:10:54.355Z,22.50
2019-04-20T02:13:19.740Z,23.40
2019-04-20T02:15:52.725Z,24.37
2019-04-20T02:18:35.092Z,23.10
2019-04-20T02:21:09.427Z,22.93
2019-04-20T02:23:31.784Z,24.40
2019-04-20T02:25:52.152Z,23.30
2019-04-20T02:28:37.419Z,24.60
2019-04-20T02:33:58.053Z,22.60
2019-04-20T02:36:42.918Z,21.83
2019-04-20T02:39:21.918Z,22.47
2019-04-20T02:46:43.022Z,22.43
2019-04-20T02:49:29.614Z,23.07
2019-04-20T02:51:42.130Z,21.67
2019-04-20T02:56:58.286Z,21.27
2019-04-20T03:01:32.378Z,23.37
2019-04-20T03:03:48.969Z,21.60
2019-04-20T03:06:23.306Z,21.47
2019-04-20T03:09:09.024Z,22.03
2019-04-20T03:11:42.729Z,22.73
2019-04-20T03:14:03.627Z,21.93
2019-04-20T03:16:32.290Z,22.63
2019-04-20T03:19:04.115Z,24.50
2019-04-20T03:21:39.090Z,24.20
2019-04-20T03:24:13.937Z,23.83
2019-04-20T03:26:40.244Z,23.73
2019-04-20T03:29:09.939Z,23.27
2019-04-20T03:32:32.974Z,22.27
2019-04-20T03:37:04.705Z,25.23
2019-04-20T03:39:28.707Z,23.47
2019-04-20T03:41:46.329Z,24.27
2019-04-20T03:44:14.196Z,24.20
2019-04-20T03:46:47.658Z,23.70
2019-04-20T03:49:38.313Z,22.70
2019-04-20T03:52:02.555Z,23.33
2019-04-20T03:54:30.806Z,22.43
2019-04-20T03:57:19.704Z,22.53
2019-04-20T04:00:03.378Z,23.37
2019-04-20T04:02:49.291Z,23.57
2019-04-20T04:05:08.773Z,23.87
2019-04-20T04:07:30.533Z,23.43
2019-04-20T04:10:08.554Z,23.63
2019-04-20T04:12:58.904Z,24.77
2019-04-20T04:15:28.002Z,23.93
2019-04-20T04:18:04.102Z,23.70
2019-04-20T04:20:36.071Z,25.17
2019-04-20T04:23:16.240Z,23.50
2019-04-20T04:25:39.713Z,24.40
2019-04-20T04:28:14.242Z,24.37
2019-04-20T04:30:40.580Z,24.20
2019-04-20T04:33:39.999Z,23.90
2019-04-20T04:35:47.839Z,24.37
2019-04-20T04:38:24.045Z,24.13
2019-04-20T04:41:06.485Z,25.60
2019-04-20T04:43:19.770Z,23.83
2019-04-20T04:45:36.553Z,25.83
2019-04-20T04:48:07.647Z,23.97
2019-04-20T04:50:44.631Z,24.60
2019-04-20T04:53:12.052Z,26.23
2019-04-20T04:55:45.812Z,25.73
2019-04-20T04:58:08.525Z,26.10
2019-04-20T05:00:39.083Z,26.67
2019-04-20T05:03:27.009Z,25.73
2019-04-20T05:06:08.909Z,26.47
2019-04-20T05:08:27.032Z,25.70
2019-04-20T05:10:49.984Z,26.73
2019-04-20T05:13:19.909Z,27.23
2019-04-20T05:16:06.310Z,26.53
2019-04-20T05:18:44.782Z,26.53
2019-04-20T05:21:10.684Z,26.03
2019-04-20T05:23:42.396Z,25.67
2019-04-20T05:26:30.018Z,24.33
2019-04-20T05:28:53.198Z,24.73
2019-04-20T05:31:16.904Z,26.60
2019-04-20T05:34:08.091Z,25.40
2019-04-20T05:36:38.413Z,24.60
2019-04-20T05:39:16.800Z,26.13
2019-04-20T05:41:38.442Z,23.30
2019-04-20T05:44:08.766Z,23.37
2019-04-20T05:46:42.449Z,22.60
2019-04-20T05:49:20.672Z,21.73
2019-04-20T05:51:42.426Z,22.20
2019-04-20T05:54:17.825Z,22.03
2019-04-20T05:59:12.730Z,22.50
2019-04-20T06:01:53.269Z,21.10
2019-04-20T06:04:17.263Z,21.30
2019-04-20T06:06:49.612Z,21.13
2019-04-20T06:09:21.044Z,22.73
2019-04-20T06:11:58.529Z,20.97
2019-04-20T06:14:17.163Z,21.07
2019-04-20T06:17:20.997Z,18.37
2019-04-20T06:19:47.278Z,19.73
2019-04-20T06:22:37.900Z,16.03
2019-04-20T06:25:31.867Z,16.70
2019-04-20T06:27:49.279Z,15.73
2019-04-20T06:30:11.031Z,15.63
2019-04-20T06:33:31.089Z,16.00
2019-04-20T06:36:07.540Z,17.57
2019-04-20T06:38:43.109Z,15.27
2019-04-20T06:41:19.796Z,14.87
2019-04-20T06:43:25.334Z,15.43
2019-04-20T06:46:01.985Z,16.43
2019-04-20T06:48:29.079Z,14.40
2019-04-20T06:50:49.272Z,11.77
2019-04-20T06:53:39.383Z,12.43
2019-04-20T06:56:15.720Z,11.73
2019-04-20T07:01:10.967Z,12.30
2019-04-20T07:06:29.395Z,12.93
2019-04-20T07:11:18.723Z,11.50
2019-04-20T07:13:37.428Z,12.50
2019-04-20T07:16:28.935Z,12.77
2019-04-20T07:19:17.229Z,13.60
2019-04-20T07:22:01.865Z,12.73
2019-04-20T07:24:25.209Z,13.87
2019-04-20T07:26:55.472Z,13.63
2019-04-20T07:29:31.985Z,16.63
2019-04-20T07:31:48.700Z,15.63
2019-04-20T07:34:26.114Z,16.37
2019-04-20T07:37:19.316Z,15.00
2019-04-20T07:39:29.046Z,17.07
2019-04-20T07:42:01.797Z,15.93
2019-04-20T07:44:36.011Z,15.97
2019-04-20T07:47:07.496Z,15.30
2019-04-20T07:49:29.014Z,14.77
2019-04-20T07:51:44.303Z,15.50
2019-04-20T07:54:35.715Z,17.33
2019-04-20T07:56:58.678Z,16.23
2019-04-20T07:59:25.301Z,17.77
2019-04-20T08:02:29.037Z,18.40
2019-04-20T08:04:47.137Z,16.50
2019-04-20T08:07:05.829Z,16.13
2019-04-20T08:09:42.240Z,15.90
2019-04-20T08:12:36.290Z,17.32
2019-04-20T08:15:05.137Z,17.10
2019-04-20T08:17:30.947Z,15.95
2019-04-20T08:19:51.792Z,15.53
2019-04-20T08:22:26.766Z,16.45
2019-04-20T08:24:52.337Z,15.88
2019-04-20T08:27:12.378Z,14.18
2019-04-20T08:29:54.073Z,13.25
2019-04-20T08:32:47.039Z,12.13
2019-04-20T08:35:25.925Z,11.45
2019-04-20T08:38:01.847Z,11.20
2019-04-20T08:40:24.346Z,9.45
2019-04-20T08:43:05.468Z,9.18
2019-04-20T08:45:23.949Z,9.28
2019-04-20T08:47:56.979Z,9.05
2019-04-20T08:50:22.502Z,11.28
2019-04-20T08:53:12.808Z,9.03
2019-04-20T08:55:23.902Z,8.78
2019-04-20T08:57:37.947Z,9.10
2019-04-20T09:00:11.158Z,8.85
2019-04-20T09:02:41.232Z,9.45
2019-04-20T09:05:28.218Z,8.28
2019-04-20T09:07:53.777Z,8.60
2019-04-20T09:10:35.717Z,9.20
2019-04-20T09:12:57.238Z,7.08
2019-04-20T09:15:14.804Z,7.55
2019-04-20T09:17:52.965Z,6.60
2019-04-20T09:20:31.875Z,7.62
2019-04-20T09:23:07.033Z,6.97
2019-04-20T09:28:11.709Z,7.30
2019-04-20T09:30:45.540Z,7.20
2019-04-20T09:33:41.776Z,7.03
2019-04-20T09:36:15.489Z,7.20
2019-04-20T09:39:00.027Z,7.50
2019-04-20T09:41:44.367Z,6.65
2019-04-20T09:43:52.472Z,6.85
2019-04-20T09:46:22.244Z,7.70
2019-04-20T09:48:56.106Z,8.08
2019-04-20T09:51:39.769Z,7.42
2019-04-20T09:54:03.941Z,6.97
2019-04-20T09:56:35.704Z,7.40
2019-04-20T09:59:12.243Z,7.95
2019-04-20T10:01:33.942Z,7.78
2019-04-20T10:03:54.767Z,7.30
2019-04-20T10:06:27.270Z,7.22
2019-04-20T10:08:56.803Z,7.37
2019-04-20T10:11:25.503Z,7.20
2019-04-20T10:13:54.463Z,6.40
2019-04-20T10:16:23.834Z,7.05
2019-04-20T10:18:54.918Z,6.83
2019-04-20T10:21:23.632Z,6.50
2019-04-20T10:23:52.599Z,7.28
2019-04-20T10:26:22.653Z,6.00
2019-04-20T10:28:51.880Z,6.37
2019-04-20T10:31:20.734Z,6.65
2019-04-20T10:33:49.448Z,6.00
2019-04-20T10:36:37.482Z,5.37
2019-04-20T10:39:08.855Z,6.28
2019-04-20T10:41:45.196Z,5.80
2019-04-20T10:44:09.093Z,5.83
2019-04-20T10:46:38.871Z,5.83
2019-04-20T10:49:09.589Z,6.42
2019-04-20T10:51:39.802Z,6.00
2019-04-20T10:54:09.145Z,6.22
2019-04-20T10:56:39.142Z,6.25
2019-04-20T10:59:09.703Z,6.55
2019-04-20T11:01:39.980Z,6.45
2019-04-20T11:04:10.435Z,6.03
2019-04-20T11:06:40.591Z,6.95
2019-04-20T11:09:10.925Z,6.60
2019-04-20T11:11:40.717Z,6.17
2019-04-20T11:14:20.372Z,6.85
2019-04-20T11:16:42.394Z,6.70
2019-04-20T11:19:11.639Z,6.95
2019-04-20T11:21:40.848Z,6.62
2019-04-20T11:24:10.078Z,5.97
2019-04-20T11:26:41.633Z,5.87
2019-04-20T11:29:10.526Z,6.10
2019-04-20T11:31:44.322Z,6.30
2019-04-20T11:34:10.409Z,5.97
2019-04-20T11:36:39.481Z,6.87
2019-04-20T11:39:11.265Z,6.50
2019-04-20T11:41:41.486Z,7.10
2019-04-20T11:44:11.700Z,5.78
2019-04-20T11:46:40.799Z,6.30
2019-04-20T11:49:09.892Z,5.87
2019-04-20T11:51:39.406Z,7.05
2019-04-20T11:54:08.472Z,6.12
2019-04-20T11:56:40.792Z,6.20
2019-04-20T11:59:09.328Z,5.90
2019-04-20T12:01:49.030Z,5.47
2019-04-20T12:04:27.120Z,6.30
2019-04-20T12:06:43.420Z,5.30
2019-04-20T12:09:12.893Z,6.50
2019-04-20T12:11:58.494Z,5.62
2019-04-20T12:14:12.636Z,5.70
2019-04-20T12:16:41.716Z,5.47
2019-04-20T12:19:10.724Z,4.85
2019-04-20T12:21:39.479Z,5.00
2019-04-20T12:24:08.286Z,5.47
2019-04-20T12:26:38.536Z,5.25
2019-04-20T12:29:07.896Z,5.50
2019-04-20T12:31:37.712Z,5.55
2019-04-20T12:34:06.793Z,5.80
2019-04-20T12:36:35.615Z,5.87
2019-04-20T12:39:08.912Z,5.53
2019-04-20T12:41:46.202Z,5.30
2019-04-20T12:44:09.653Z,5.15
2019-04-20T12:46:38.922Z,5.60
2019-04-20T12:49:07.850Z,5.90
2019-04-20T12:51:45.473Z,5.40
2019-04-20T12:54:07.047Z,5.17
2019-04-20T12:56:36.046Z,4.53
2019-04-20T12:59:05.581Z,4.95
2019-04-20T13:01:35.431Z,5.03
2019-04-20T13:04:07.349Z,6.10
2019-04-20T13:06:37.338Z,5.53
2019-04-20T13:09:10.641Z,5.62
2019-04-20T13:11:51.649Z,5.67
2019-04-20T13:14:34.803Z,6.10
2019-04-20T13:17:04.180Z,6.00
2019-04-20T13:19:33.334Z,5.73
2019-04-20T13:22:03.239Z,5.95
2019-04-20T13:24:32.450Z,5.60
2019-04-20T13:27:02.640Z,7.83
2019-04-20T13:29:33.545Z,6.13
2019-04-20T13:32:02.404Z,5.63
2019-04-20T13:34:31.988Z,6.20
2019-04-20T13:37:02.186Z,6.17
2019-04-20T13:39:31.097Z,5.67
2019-04-20T13:42:10.518Z,6.00
2019-04-20T13:44:30.722Z,5.10
2019-04-20T13:47:00.820Z,5.37
2019-04-20T13:49:31.220Z,5.75
2019-04-20T13:52:00.424Z,5.50
2019-04-20T13:54:29.853Z,4.97
2019-04-20T13:57:00.630Z,4.80
2019-04-20T13:59:32.467Z,5.45
2019-04-20T14:02:15.044Z,5.63
2019-04-20T14:04:46.527Z,4.97
2019-04-20T14:07:17.019Z,5.57
2019-04-20T14:09:47.703Z,5.27
2019-04-20T14:12:25.172Z,5.00
2019-04-20T14:14:51.052Z,5.00
2019-04-20T14:17:21.124Z,5.70
2019-04-20T14:19:50.529Z,5.10
2019-04-20T14:22:20.739Z,4.80
2019-04-20T14:24:51.019Z,4.93
2019-04-20T14:27:21.139Z,5.50
2019-04-20T14:29:50.927Z,5.60
2019-04-20T14:32:40.823Z,6.03
2019-04-20T14:35:11.238Z,5.27
2019-04-20T14:37:41.376Z,5.67
2019-04-20T14:40:12.531Z,5.78
2019-04-20T14:42:46.433Z,5.03
2019-04-20T14:45:12.422Z,5.67
2019-04-20T14:47:41.534Z,5.20
2019-04-20T14:50:11.840Z,4.90
2019-04-20T14:52:41.760Z,5.10
2019-04-20T14:55:13.768Z,5.40
2019-04-20T14:57:41.746Z,5.00
2019-04-20T15:00:31.879Z,5.00
2019-04-20T15:03:03.838Z,4.73
2019-04-20T15:05:32.938Z,5.07
2019-04-20T15:08:02.746Z,5.53
2019-04-20T15:10:32.932Z,5.13
2019-04-20T15:13:04.546Z,5.17
2019-04-20T15:15:32.592Z,5.03
2019-04-20T15:18:05.929Z,5.10
2019-04-20T15:20:37.437Z,4.40
2019-04-20T15:23:08.006Z,4.60
2019-04-20T15:25:37.065Z,6.50
2019-04-20T15:28:06.152Z,4.87
2019-04-20T15:30:36.124Z,3.93
2019-04-20T15:33:05.212Z,4.50
2019-04-20T15:35:34.705Z,4.43
2019-04-20T15:38:04.990Z,4.47
2019-04-20T15:40:35.236Z,3.97
2019-04-20T15:43:11.782Z,4.60
2019-04-20T15:45:34.641Z,4.40
2019-04-20T15:48:03.796Z,3.70
2019-04-20T15:50:33.902Z,3.63
2019-04-20T15:53:03.963Z,3.47
2019-04-20T15:55:37.972Z,3.30
2019-04-20T15:58:06.403Z,3.80
2019-04-20T16:00:36.307Z,3.23
2019-04-20T16:03:19.218Z,3.70
2019-04-20T16:06:05.379Z,2.87
2019-04-20T16:08:36.647Z,3.00
2019-04-20T16:11:06.989Z,2.63
2019-04-20T16:13:40.330Z,3.90
2019-04-20T16:16:07.834Z,3.30
2019-04-20T16:18:37.098Z,2.67
2019-04-20T16:21:11.697Z,2.67
2019-04-20T16:23:41.152Z,2.40
2019-04-20T16:26:23.873Z,2.50
2019-04-20T16:28:53.503Z,2.97
2019-04-20T16:31:22.748Z,2.43
2019-04-20T16:33:54.018Z,2.60
2019-04-20T16:36:22.847Z,2.80
2019-04-20T16:38:53.169Z,10.23
2019-04-20T16:41:22.334Z,2.70
2019-04-20T16:43:51.642Z,3.53
2019-04-20T16:46:23.628Z,2.43
2019-04-20T16:48:51.028Z,2.97
2019-04-20T16:51:20.822Z,3.07
2019-04-20T16:53:50.146Z,2.90
2019-04-20T16:56:21.076Z,3.07
2019-04-20T16:58:57.306Z,2.83
2019-04-20T17:01:21.372Z,2.40
2019-04-20T17:04:01.793Z,1.70
2019-04-20T17:06:26.307Z,2.23
2019-04-20T17:08:56.535Z,2.00
2019-04-20T17:11:25.731Z,2.30
2019-04-20T17:13:58.038Z,2.33
2019-04-20T17:16:25.976Z,2.00
2019-04-20T17:18:55.303Z,2.00
2019-04-20T17:21:27.717Z,2.13
2019-04-20T17:23:55.467Z,2.13
2019-04-20T17:26:27.280Z,2.10
2019-04-20T17:29:10.566Z,2.10
2019-04-20T17:31:41.298Z,1.90
2019-04-20T17:34:26.955Z,4.73
2019-04-20T17:36:40.678Z,2.13
2019-04-20T17:39:12.531Z,2.13
2019-04-20T17:41:56.313Z,2.37
2019-04-20T17:44:30.277Z,2.43
2019-04-20T17:46:52.384Z,2.60
2019-04-20T17:49:28.303Z,2.20
2019-04-20T17:52:05.119Z,2.40
2019-04-20T17:54:15.821Z,2.57
2019-04-20T17:56:46.671Z,2.73
2019-04-20T17:59:16.679Z,2.50
2019-04-20T18:02:07.852Z,2.43
2019-04-20T18:05:03.785Z,2.60
2019-04-20T18:07:28.431Z,2.80
2019-04-20T18:09:58.860Z,2.87
2019-04-20T18:12:07.595Z,2.57
2019-04-20T18:14:48.075Z,2.90
2019-04-20T18:17:24.342Z,2.60
2019-04-20T18:19:45.011Z,2.90
2019-04-20T18:22:14.166Z,3.27
2019-04-20T18:25:09.161Z,3.20
2019-04-20T18:27:39.934Z,3.47
2019-04-20T18:30:04.082Z,3.37
2019-04-20T18:32:16.022Z,3.30
2019-04-20T18:34:54.150Z,2.83
2019-04-20T18:37:21.533Z,3.10
2019-04-20T18:39:57.389Z,3.20
2019-04-20T18:42:29.109Z,3.37
2019-04-20T18:45:09.054Z,3.27
2019-04-20T18:47:42.158Z,3.20
2019-04-20T18:50:03.140Z,3.30
2019-04-20T18:52:24.452Z,3.00
2019-04-20T18:54:55.567Z,3.50
2019-04-20T18:57:28.704Z,3.23
2019-04-20T18:59:56.681Z,3.57
2019-04-20T19:02:31.196Z,3.30
2019-04-20T19:04:58.618Z,3.97
2019-04-20T19:07:27.995Z,3.47
2019-04-20T19:10:02.603Z,3.73
2019-04-20T19:12:36.666Z,3.93
2019-04-20T19:15:20.765Z,3.83
2019-04-20T19:17:49.698Z,3.90
2019-04-20T19:20:29.032Z,3.93
2019-04-20T19:22:59.932Z,3.70
2019-04-20T19:25:34.562Z,3.93
2019-04-20T19:28:01.330Z,3.70
2019-04-20T19:30:37.247Z,4.00
2019-04-20T19:33:18.737Z,4.20
2019-04-20T19:35:41.613Z,4.30
2019-04-20T19:38:10.330Z,4.80
2019-04-20T19:40:45.424Z,4.23
2019-04-20T19:43:30.507Z,4.27
2019-04-20T19:46:31.459Z,4.27
2019-04-20T19:48:39.073Z,4.53
2019-04-20T19:51:19.226Z,3.90
2019-04-20T19:53:48.718Z,4.33
2019-04-20T19:56:07.762Z,4.13
2019-04-20T19:58:34.379Z,4.27
2019-04-20T20:00:59.460Z,3.93
2019-04-20T20:03:27.947Z,3.77
2019-04-20T20:05:58.284Z,4.00
2019-04-20T20:08:29.954Z,4.30
2019-04-20T20:11:00.851Z,4.30
2019-04-20T20:13:37.521Z,4.30
2019-04-20T20:16:08.936Z,4.57
2019-04-20T20:18:46.570Z,4.30
2019-04-20T20:21:15.185Z,4.57
2019-04-20T20:23:32.063Z,4.33
2019-04-20T20:26:05.068Z,5.17
2019-04-20T20:28:40.376Z,5.83
2019-04-20T20:31:17.121Z,5.10
2019-04-20T20:33:49.672Z,5.00
2019-04-20T20:36:12.569Z,5.03
2019-04-20T20:38:42.255Z,5.53
2019-04-20T20:41:15.155Z,7.70
2019-04-20T20:43:48.164Z,5.70
2019-04-20T20:46:21.347Z,6.83
2019-04-20T20:49:03.482Z,8.00
2019-04-20T20:51:35.533Z,8.00
2019-04-20T20:53:50.878Z,8.37
2019-04-20T20:56:22.605Z,9.50
2019-04-20T20:58:53.980Z,8.70
2019-04-20T21:01:23.765Z,8.77
2019-04-20T21:03:52.646Z,8.23
2019-04-20T21:06:20.273Z,10.00
2019-04-20T21:08:53.736Z,11.20
2019-04-20T21:11:24.217Z,10.00
2019-04-20T21:13:52.799Z,11.00
2019-04-20T21:16:26.656Z,12.70
2019-04-20T21:19:13.507Z,13.70
2019-04-20T21:21:37.372Z,13.10
2019-04-20T21:24:05.148Z,12.50
2019-04-20T21:26:34.992Z,11.83
2019-04-20T21:28:59.655Z,10.70
2019-04-20T21:31:29.664Z,8.90
2019-04-20T21:34:01.863Z,9.30
2019-04-20T21:36:31.780Z,9.23
2019-04-20T21:39:01.581Z,9.40
2019-04-20T21:41:31.073Z,8.43
2019-04-20T21:44:01.154Z,8.47
2019-04-20T21:46:39.858Z,8.17
2019-04-20T21:49:18.216Z,8.00
2019-04-20T21:51:44.285Z,7.23
2019-04-20T21:54:04.926Z,6.90
2019-04-20T21:56:39.267Z,7.20
2019-04-20T21:59:14.233Z,7.13
2019-04-20T22:01:39.732Z,7.47
2019-04-20T22:04:08.290Z,6.90
2019-04-20T22:06:38.244Z,7.87
2019-04-20T22:09:10.737Z,7.73
2019-04-20T22:11:40.261Z,7.93
2019-04-20T22:14:17.520Z,6.87
2019-04-20T22:16:47.989Z,9.37
2019-04-20T22:19:28.605Z,7.63
2019-04-20T22:21:53.141Z,7.50
2019-04-20T22:24:28.659Z,7.90
2019-04-20T22:26:58.896Z,7.97
2019-04-20T22:29:16.207Z,8.07
2019-04-20T22:31:52.352Z,8.13
2019-04-20T22:34:20.809Z,8.47
2019-04-20T22:36:48.715Z,10.43
2019-04-20T22:39:32.225Z,9.20
2019-04-20T22:42:02.647Z,10.07
2019-04-20T22:44:28.308Z,10.67
2019-04-20T22:46:58.350Z,8.97
2019-04-20T22:49:45.537Z,9.00
2019-04-20T22:52:06.337Z,8.50
2019-04-20T22:54:46.722Z,9.63
2019-04-20T22:57:10.701Z,10.50
2019-04-20T22:59:38.372Z,11.90
2019-04-20T23:02:02.364Z,11.17
2019-04-20T23:04:31.011Z,11.73
2019-04-20T23:07:00.926Z,11.67
2019-04-20T23:09:32.759Z,11.50
2019-04-20T23:12:09.120Z,12.03
2019-04-20T23:14:32.095Z,11.73
2019-04-20T23:17:02.153Z,11.93
2019-04-20T23:19:38.234Z,10.83
2019-04-20T23:22:06.450Z,12.10
2019-04-20T23:24:33.202Z,11.80
2019-04-20T23:27:06.571Z,11.77
2019-04-20T23:29:36.454Z,11.67
2019-04-20T23:32:06.511Z,12.03
2019-04-20T23:34:34.637Z,9.90
2019-04-20T23:37:08.798Z,11.03
2019-04-20T23:39:36.436Z,11.00
2019-04-20T23:42:08.914Z,11.43
2019-04-20T23:44:40.019Z,12.03
2019-04-20T23:47:19.822Z,12.00
2019-04-20T23:50:03.359Z,10.57
2019-04-20T23:52:45.502Z,12.00
2019-04-20T23:54:58.150Z,11.47
2019-04-20T23:57:21.795Z,11.70
2019-04-20T23:59:51.990Z,12.00
